Chula Vista, CA (91913)

10:22 PM PDT en Octubre 31, 2014 (GMT -0700)
Lower Surrey Drive | Change Station
CLOSE
Current Station
Estación meteorológica personal
Location: Bonita, CA
Altura: 150 ft
Estaciones meteorológicas cercanas

Alt 150 ft 32.65 °N, 117.04 °W | Updated 12 seconds ago

Nublado
Nublado
66.9 ° F
Sensación térmica 66.9 ° F
N
0.9
Viento Variable Viento desde Oeste
Gusts 5.0 mph

Hoy
Alta -- | Baja -- ° F
--% Posibilidad de precipitaciones
Ayer
Alta -- | Baja -- ° F
Precip. -- pul
7:04 AM 5:57 PM
Gibosa creciente, 63% visible
Presión 29.89 pul
Visibilidad 10.0 Millas
Nubes Baja 2000 ft
Baja 3000 ft
Nublado 5000 ft
Punto de rocío 60 ° F
Humedad 78%
Precipitaciones 0.00 pul
Espesor de la nieve No disponible.
UV 0.0 de una escala de 12
Polen 2.70 de una escala de 12
Calidad del aire No disponible.
Flu Activity No disponible.
METAR KSDM 010453Z AUTO 20008KT 10SM FEW020 FEW030 OVC050 18/14 A2990 RMK AO2 SLP120 T01830139 TSNO

More Conditions Fewer Conditions

Presión 29.89 pul
Visibilidad 10.0 Millas
Nubes Baja 2000 ft
Baja 3000 ft
Nublado 5000 ft
Punto de rocío 60 ° F
Humedad 78%
Precipitaciones 0.00 pul
Espesor de la nieve No disponible.
UV 0.0 de una escala de 12
Polen 2.70 de una escala de 12
Calidad del aire No disponible.
Flu Activity No disponible.
METAR KSDM 010453Z AUTO 20008KT 10SM FEW020 FEW030 OVC050 18/14 A2990 RMK AO2 SLP120 T01830139 TSNO

More Conditions Fewer Conditions

10-Day Weather Forecast

Almanac

Astronomía

Oct. 31, 2014 Salida Puesta
Hora real
Crepúsculo civil
Crepúsculo náutico
Crepúsculo astronómico
Luna
Horas de luz
Horas de luz
Tomorrow will be .
, % of the Moon is Illuminated

Extremos de hoy

Máximos del estado Bajos del estado

Community

WunderPhotos

Upload Photos

1,766,858 ¡fotos cargadas!

WunderBlogs® & News

Nearby

Calidad del aire

  Calidad del aire Índice AQ Contaminante
Not available.

Grosos de nieve

Estación Profundido Altura

Actividad de terremotos

Ciudad Distance Mag. Tiempo y dato
Magnitud mínima muestra es 2,5.

Temperaturas de aguas costeras

Lugar Temperatura

Estaciones meteorológicas cercanas